sensor_id;sensor_type;location;lat;lon;timestamp;temperature;humidity
15543;DHT22;7873;52.230;12.856;2023-10-09T00:01:42;21.70;52.10
15543;DHT22;7873;52.230;12.856;2023-10-09T00:04:11;21.70;52.10
15543;DHT22;7873;52.230;12.856;2023-10-09T00:06:40;21.70;52.10
15543;DHT22;7873;52.230;12.856;2023-10-09T00:09:07;21.70;52.20
15543;DHT22;7873;52.230;12.856;2023-10-09T00:11:55;21.70;52.20
15543;DHT22;7873;52.230;12.856;2023-10-09T00:14:23;21.70;52.20
15543;DHT22;7873;52.230;12.856;2023-10-09T00:16:50;21.70;52.20
15543;DHT22;7873;52.230;12.856;2023-10-09T00:19:21;21.70;52.20
15543;DHT22;7873;52.230;12.856;2023-10-09T00:21:56;21.70;52.20
15543;DHT22;7873;52.230;12.856;2023-10-09T00:24:25;21.70;52.20
15543;DHT22;7873;52.230;12.856;2023-10-09T00:26:54;21.60;52.20
15543;DHT22;7873;52.230;12.856;2023-10-09T00:29:33;21.70;52.20
15543;DHT22;7873;52.230;12.856;2023-10-09T00:32:07;21.70;52.20
15543;DHT22;7873;52.230;12.856;2023-10-09T00:34:38;21.70;52.20
15543;DHT22;7873;52.230;12.856;2023-10-09T00:37:06;21.70;52.20
15543;DHT22;7873;52.230;12.856;2023-10-09T00:39:36;21.70;52.10
15543;DHT22;7873;52.230;12.856;2023-10-09T00:42:08;21.70;52.10
15543;DHT22;7873;52.230;12.856;2023-10-09T00:44:37;21.70;52.10
15543;DHT22;7873;52.230;12.856;2023-10-09T00:47:05;21.70;52.10
15543;DHT22;7873;52.230;12.856;2023-10-09T00:49:46;21.70;52.10
15543;DHT22;7873;52.230;12.856;2023-10-09T00:52:16;21.70;52.10
15543;DHT22;7873;52.230;12.856;2023-10-09T00:54:52;21.60;52.10
15543;DHT22;7873;52.230;12.856;2023-10-09T00:57:26;21.70;52.10
15543;DHT22;7873;52.230;12.856;2023-10-09T00:59:54;21.60;52.10
15543;DHT22;7873;52.230;12.856;2023-10-09T01:02:25;21.60;52.10
15543;DHT22;7873;52.230;12.856;2023-10-09T01:05:01;21.70;52.10
15543;DHT22;7873;52.230;12.856;2023-10-09T01:07:46;21.70;52.10
15543;DHT22;7873;52.230;12.856;2023-10-09T01:10:23;21.60;52.10
15543;DHT22;7873;52.230;12.856;2023-10-09T01:12:51;21.70;52.10
15543;DHT22;7873;52.230;12.856;2023-10-09T01:15:20;21.70;52.10
15543;DHT22;7873;52.230;12.856;2023-10-09T01:18:01;21.60;52.10
15543;DHT22;7873;52.230;12.856;2023-10-09T01:20:32;21.60;52.10
15543;DHT22;7873;52.230;12.856;2023-10-09T01:23:09;21.70;52.10
15543;DHT22;7873;52.230;12.856;2023-10-09T01:25:36;21.60;52.10
15543;DHT22;7873;52.230;12.856;2023-10-09T01:28:09;21.70;51.90
15543;DHT22;7873;52.230;12.856;2023-10-09T01:30:35;21.70;51.90
15543;DHT22;7873;52.230;12.856;2023-10-09T01:33:07;21.70;51.90
15543;DHT22;7873;52.230;12.856;2023-10-09T01:35:52;21.70;51.90
15543;DHT22;7873;52.230;12.856;2023-10-09T01:38:24;21.70;51.80
15543;DHT22;7873;52.230;12.856;2023-10-09T01:41:06;21.70;51.90
15543;DHT22;7873;52.230;12.856;2023-10-09T01:43:41;21.70;51.80
15543;DHT22;7873;52.230;12.856;2023-10-09T01:46:10;21.70;51.80
15543;DHT22;7873;52.230;12.856;2023-10-09T01:48:37;21.70;51.80
15543;DHT22;7873;52.230;12.856;2023-10-09T01:51:05;21.70;51.90
15543;DHT22;7873;52.230;12.856;2023-10-09T01:53:35;21.70;51.80
15543;DHT22;7873;52.230;12.856;2023-10-09T01:56:10;21.70;51.80
15543;DHT22;7873;52.230;12.856;2023-10-09T01:58:41;21.70;51.80
15543;DHT22;7873;52.230;12.856;2023-10-09T02:01:12;21.70;51.80
15543;DHT22;7873;52.230;12.856;2023-10-09T02:03:40;21.70;51.80
15543;DHT22;7873;52.230;12.856;2023-10-09T02:06:08;21.60;51.80
15543;DHT22;7873;52.230;12.856;2023-10-09T02:08:52;21.60;51.80
15543;DHT22;7873;52.230;12.856;2023-10-09T02:11:19;21.70;51.80
15543;DHT22;7873;52.230;12.856;2023-10-09T02:13:50;21.70;51.80
15543;DHT22;7873;52.230;12.856;2023-10-09T02:16:27;21.60;51.80
15543;DHT22;7873;52.230;12.856;2023-10-09T02:18:54;21.60;51.80
15543;DHT22;7873;52.230;12.856;2023-10-09T02:21:21;21.70;51.70
15543;DHT22;7873;52.230;12.856;2023-10-09T02:24:01;21.70;51.60
15543;DHT22;7873;52.230;12.856;2023-10-09T02:26:32;21.70;51.50
15543;DHT22;7873;52.230;12.856;2023-10-09T02:29:21;21.70;51.60
15543;DHT22;7873;52.230;12.856;2023-10-09T02:31:49;21.60;51.80
15543;DHT22;7873;52.230;12.856;2023-10-09T02:34:19;21.60;51.80
15543;DHT22;7873;52.230;12.856;2023-10-09T02:36:50;21.60;51.80
15543;DHT22;7873;52.230;12.856;2023-10-09T02:39:24;21.60;51.90
15543;DHT22;7873;52.230;12.856;2023-10-09T02:41:51;21.60;51.80
15543;DHT22;7873;52.230;12.856;2023-10-09T02:44:23;21.60;51.70
15543;DHT22;7873;52.230;12.856;2023-10-09T02:46:50;21.70;51.70
15543;DHT22;7873;52.230;12.856;2023-10-09T02:49:17;21.70;51.50
15543;DHT22;7873;52.230;12.856;2023-10-09T02:51:43;21.70;51.60
15543;DHT22;7873;52.230;12.856;2023-10-09T02:54:13;21.70;51.60
15543;DHT22;7873;52.230;12.856;2023-10-09T02:56:54;21.70;51.60
15543;DHT22;7873;52.230;12.856;2023-10-09T02:59:22;21.60;52.10
15543;DHT22;7873;52.230;12.856;2023-10-09T03:01:49;21.50;52.40
15543;DHT22;7873;52.230;12.856;2023-10-09T03:04:17;21.40;53.50
15543;DHT22;7873;52.230;12.856;2023-10-09T03:06:44;21.40;53.40
15543;DHT22;7873;52.230;12.856;2023-10-09T03:09:15;21.40;53.20
15543;DHT22;7873;52.230;12.856;2023-10-09T03:11:52;21.40;53.30
15543;DHT22;7873;52.230;12.856;2023-10-09T03:14:20;21.40;53.30
15543;DHT22;7873;52.230;12.856;2023-10-09T03:16:51;21.40;53.30
15543;DHT22;7873;52.230;12.856;2023-10-09T03:19:18;21.40;54.20
15543;DHT22;7873;52.230;12.856;2023-10-09T03:21:44;21.40;53.40
15543;DHT22;7873;52.230;12.856;2023-10-09T03:24:12;21.40;53.40
15543;DHT22;7873;52.230;12.856;2023-10-09T03:26:38;21.40;53.40
15543;DHT22;7873;52.230;12.856;2023-10-09T03:29:06;21.40;53.40
15543;DHT22;7873;52.230;12.856;2023-10-09T03:31:35;21.40;53.40
15543;DHT22;7873;52.230;12.856;2023-10-09T03:34:02;21.40;53.00
15543;DHT22;7873;52.230;12.856;2023-10-09T03:36:28;21.40;52.90
15543;DHT22;7873;52.230;12.856;2023-10-09T03:38:56;21.40;53.20
15543;DHT22;7873;52.230;12.856;2023-10-09T03:41:23;21.40;53.50
15543;DHT22;7873;52.230;12.856;2023-10-09T03:43:51;21.40;53.60
15543;DHT22;7873;52.230;12.856;2023-10-09T03:46:20;21.40;53.10
15543;DHT22;7873;52.230;12.856;2023-10-09T03:48:51;21.40;53.30
15543;DHT22;7873;52.230;12.856;2023-10-09T03:51:21;21.30;53.40
15543;DHT22;7873;52.230;12.856;2023-10-09T03:53:48;21.30;54.20
15543;DHT22;7873;52.230;12.856;2023-10-09T03:56:16;21.30;53.50
15543;DHT22;7873;52.230;12.856;2023-10-09T03:58:43;21.30;53.50
15543;DHT22;7873;52.230;12.856;2023-10-09T04:01:12;21.30;53.50
15543;DHT22;7873;52.230;12.856;2023-10-09T04:03:49;21.20;53.50
15543;DHT22;7873;52.230;12.856;2023-10-09T04:06:20;21.20;53.50
15543;DHT22;7873;52.230;12.856;2023-10-09T04:08:47;21.30;53.50
15543;DHT22;7873;52.230;12.856;2023-10-09T04:11:16;21.30;53.50
15543;DHT22;7873;52.230;12.856;2023-10-09T04:13:43;21.30;53.60
15543;DHT22;7873;52.230;12.856;2023-10-09T04:16:11;21.30;53.60
15543;DHT22;7873;52.230;12.856;2023-10-09T04:18:53;21.30;53.60
15543;DHT22;7873;52.230;12.856;2023-10-09T04:21:21;21.30;53.70
15543;DHT22;7873;52.230;12.856;2023-10-09T04:23:59;21.30;53.70
15543;DHT22;7873;52.230;12.856;2023-10-09T04:26:35;21.30;53.70
15543;DHT22;7873;52.230;12.856;2023-10-09T04:29:02;21.40;53.30
15543;DHT22;7873;52.230;12.856;2023-10-09T04:31:30;21.40;53.20
15543;DHT22;7873;52.230;12.856;2023-10-09T04:34:04;21.40;53.30
15543;DHT22;7873;52.230;12.856;2023-10-09T04:37:00;21.50;53.50
15543;DHT22;7873;52.230;12.856;2023-10-09T04:39:45;21.50;53.00
15543;DHT22;7873;52.230;12.856;2023-10-09T04:42:13;21.60;53.20
15543;DHT22;7873;52.230;12.856;2023-10-09T04:45:01;21.50;53.00
15543;DHT22;7873;52.230;12.856;2023-10-09T04:47:42;21.50;52.80
15543;DHT22;7873;52.230;12.856;2023-10-09T04:50:24;21.60;53.00
15543;DHT22;7873;52.230;12.856;2023-10-09T04:53:13;21.50;53.10
15543;DHT22;7873;52.230;12.856;2023-10-09T04:55:48;21.50;53.30
15543;DHT22;7873;52.230;12.856;2023-10-09T04:58:20;21.50;53.30
15543;DHT22;7873;52.230;12.856;2023-10-09T05:00:51;21.50;53.10
15543;DHT22;7873;52.230;12.856;2023-10-09T05:03:38;21.50;53.10
15543;DHT22;7873;52.230;12.856;2023-10-09T05:06:12;21.50;53.00
15543;DHT22;7873;52.230;12.856;2023-10-09T05:09:08;21.50;53.20
15543;DHT22;7873;52.230;12.856;2023-10-09T05:11:38;21.50;52.80
15543;DHT22;7873;52.230;12.856;2023-10-09T05:14:19;21.50;53.40
15543;DHT22;7873;52.230;12.856;2023-10-09T05:16:54;21.50;52.10
15543;DHT22;7873;52.230;12.856;2023-10-09T05:19:20;21.40;52.30
15543;DHT22;7873;52.230;12.856;2023-10-09T05:22:09;21.30;52.40
15543;DHT22;7873;52.230;12.856;2023-10-09T05:24:55;21.20;52.50
15543;DHT22;7873;52.230;12.856;2023-10-09T05:27:22;21.20;52.60
15543;DHT22;7873;52.230;12.856;2023-10-09T05:30:10;21.10;52.60
15543;DHT22;7873;52.230;12.856;2023-10-09T05:32:51;21.10;52.70
15543;DHT22;7873;52.230;12.856;2023-10-09T05:35:21;21.20;52.30
15543;DHT22;7873;52.230;12.856;2023-10-09T05:37:56;21.20;51.90
15543;DHT22;7873;52.230;12.856;2023-10-09T05:40:28;21.30;51.90
15543;DHT22;7873;52.230;12.856;2023-10-09T05:42:56;21.30;51.70
15543;DHT22;7873;52.230;12.856;2023-10-09T05:45:28;21.40;51.70
15543;DHT22;7873;52.230;12.856;2023-10-09T05:48:12;21.30;51.70
15543;DHT22;7873;52.230;12.856;2023-10-09T05:51:10;21.30;52.00
15543;DHT22;7873;52.230;12.856;2023-10-09T05:54:00;21.30;52.10
15543;DHT22;7873;52.230;12.856;2023-10-09T05:56:49;21.30;51.90
15543;DHT22;7873;52.230;12.856;2023-10-09T05:59:34;21.30;52.00
15543;DHT22;7873;52.230;12.856;2023-10-09T06:02:18;21.30;51.80
15543;DHT22;7873;52.230;12.856;2023-10-09T06:05:02;21.30;51.90
15543;DHT22;7873;52.230;12.856;2023-10-09T06:07:44;21.30;51.90
15543;DHT22;7873;52.230;12.856;2023-10-09T06:10:31;21.40;51.80
15543;DHT22;7873;52.230;12.856;2023-10-09T06:13:05;21.40;51.80
15543;DHT22;7873;52.230;12.856;2023-10-09T06:15:36;21.40;51.80
15543;DHT22;7873;52.230;12.856;2023-10-09T06:18:34;21.40;51.80
15543;DHT22;7873;52.230;12.856;2023-10-09T06:21:01;21.40;51.80
15543;DHT22;7873;52.230;12.856;2023-10-09T06:23:35;21.40;51.70
15543;DHT22;7873;52.230;12.856;2023-10-09T06:26:35;21.40;51.80
15543;DHT22;7873;52.230;12.856;2023-10-09T06:29:02;21.40;52.50
15543;DHT22;7873;52.230;12.856;2023-10-09T06:31:41;21.40;51.80
15543;DHT22;7873;52.230;12.856;2023-10-09T06:34:21;21.30;51.90
15543;DHT22;7873;52.230;12.856;2023-10-09T06:36:57;21.30;52.60
15543;DHT22;7873;52.230;12.856;2023-10-09T06:39:29;21.30;51.90
15543;DHT22;7873;52.230;12.856;2023-10-09T06:42:14;21.30;51.80
15543;DHT22;7873;52.230;12.856;2023-10-09T06:44:54;21.30;51.80
15543;DHT22;7873;52.230;12.856;2023-10-09T06:47:21;21.30;52.60
15543;DHT22;7873;52.230;12.856;2023-10-09T06:49:49;21.30;52.00
15543;DHT22;7873;52.230;12.856;2023-10-09T06:52:36;21.30;51.90
15543;DHT22;7873;52.230;12.856;2023-10-09T06:55:17;21.30;51.90
15543;DHT22;7873;52.230;12.856;2023-10-09T06:57:59;21.30;52.00
15543;DHT22;7873;52.230;12.856;2023-10-09T07:00:26;21.30;51.90
15543;DHT22;7873;52.230;12.856;2023-10-09T07:03:11;21.30;51.90
15543;DHT22;7873;52.230;12.856;2023-10-09T07:05:37;21.30;52.00
15543;DHT22;7873;52.230;12.856;2023-10-09T07:08:24;21.20;52.00
15543;DHT22;7873;52.230;12.856;2023-10-09T07:11:02;21.20;52.00
15543;DHT22;7873;52.230;12.856;2023-10-09T07:13:47;21.20;51.90
15543;DHT22;7873;52.230;12.856;2023-10-09T07:16:21;21.30;51.90
15543;DHT22;7873;52.230;12.856;2023-10-09T07:18:53;21.30;51.90
15543;DHT22;7873;52.230;12.856;2023-10-09T07:21:20;21.30;51.90
15543;DHT22;7873;52.230;12.856;2023-10-09T07:23:53;21.30;51.90
15543;DHT22;7873;52.230;12.856;2023-10-09T07:26:22;21.30;51.80
15543;DHT22;7873;52.230;12.856;2023-10-09T07:29:04;21.30;51.70
15543;DHT22;7873;52.230;12.856;2023-10-09T07:31:49;21.30;51.70
15543;DHT22;7873;52.230;12.856;2023-10-09T07:34:23;21.40;51.80
15543;DHT22;7873;52.230;12.856;2023-10-09T07:37:18;21.30;51.70
15543;DHT22;7873;52.230;12.856;2023-10-09T07:39:48;21.30;51.80
15543;DHT22;7873;52.230;12.856;2023-10-09T07:42:22;21.20;51.90
15543;DHT22;7873;52.230;12.856;2023-10-09T07:45:00;21.30;51.70
15543;DHT22;7873;52.230;12.856;2023-10-09T07:47:38;21.30;51.70
15543;DHT22;7873;52.230;12.856;2023-10-09T07:50:26;21.30;51.70
15543;DHT22;7873;52.230;12.856;2023-10-09T07:53:03;21.30;51.70
15543;DHT22;7873;52.230;12.856;2023-10-09T07:55:43;21.30;51.70
15543;DHT22;7873;52.230;12.856;2023-10-09T07:58:19;21.30;51.70
15543;DHT22;7873;52.230;12.856;2023-10-09T08:00:52;21.30;51.70
15543;DHT22;7873;52.230;12.856;2023-10-09T08:03:41;21.30;51.70
15543;DHT22;7873;52.230;12.856;2023-10-09T08:06:11;21.30;51.70
15543;DHT22;7873;52.230;12.856;2023-10-09T08:08:52;21.30;51.70
15543;DHT22;7873;52.230;12.856;2023-10-09T08:11:32;21.30;51.70
15543;DHT22;7873;52.230;12.856;2023-10-09T08:14:25;21.30;51.70
15543;DHT22;7873;52.230;12.856;2023-10-09T08:17:07;21.30;51.70
15543;DHT22;7873;52.230;12.856;2023-10-09T08:19:39;21.30;51.70
15543;DHT22;7873;52.230;12.856;2023-10-09T08:22:22;21.30;51.70
15543;DHT22;7873;52.230;12.856;2023-10-09T08:25:06;21.30;51.70
15543;DHT22;7873;52.230;12.856;2023-10-09T08:27:33;21.30;51.70
15543;DHT22;7873;52.230;12.856;2023-10-09T08:30:19;21.30;51.70
15543;DHT22;7873;52.230;12.856;2023-10-09T08:33:07;21.30;51.70
15543;DHT22;7873;52.230;12.856;2023-10-09T08:35:52;21.30;51.70
15543;DHT22;7873;52.230;12.856;2023-10-09T08:38:21;21.30;51.70
15543;DHT22;7873;52.230;12.856;2023-10-09T08:40:49;21.20;51.70
15543;DHT22;7873;52.230;12.856;2023-10-09T08:43:20;21.30;51.70
15543;DHT22;7873;52.230;12.856;2023-10-09T08:45:48;21.20;51.80
15543;DHT22;7873;52.230;12.856;2023-10-09T08:48:19;21.20;51.70
15543;DHT22;7873;52.230;12.856;2023-10-09T08:50:47;21.30;51.70
15543;DHT22;7873;52.230;12.856;2023-10-09T08:53:16;21.30;51.70
15543;DHT22;7873;52.230;12.856;2023-10-09T08:55:43;21.20;51.70
15543;DHT22;7873;52.230;12.856;2023-10-09T08:58:11;21.20;51.90
15543;DHT22;7873;52.230;12.856;2023-10-09T09:00:42;21.20;51.70
15543;DHT22;7873;52.230;12.856;2023-10-09T09:03:11;21.30;51.60
15543;DHT22;7873;52.230;12.856;2023-10-09T09:05:39;21.20;51.60
15543;DHT22;7873;52.230;12.856;2023-10-09T09:08:06;21.30;51.70
15543;DHT22;7873;52.230;12.856;2023-10-09T09:10:50;21.20;51.60
15543;DHT22;7873;52.230;12.856;2023-10-09T09:13:23;21.20;51.60
15543;DHT22;7873;52.230;12.856;2023-10-09T09:15:50;21.20;51.70
15543;DHT22;7873;52.230;12.856;2023-10-09T09:18:18;21.20;51.70
15543;DHT22;7873;52.230;12.856;2023-10-09T09:20:46;21.20;51.70
15543;DHT22;7873;52.230;12.856;2023-10-09T09:23:13;21.20;51.80
15543;DHT22;7873;52.230;12.856;2023-10-09T09:25:42;21.20;51.80
15543;DHT22;7873;52.230;12.856;2023-10-09T09:28:11;21.20;51.70
15543;DHT22;7873;52.230;12.856;2023-10-09T09:30:45;21.20;51.80
15543;DHT22;7873;52.230;12.856;2023-10-09T09:33:19;21.10;51.80
15543;DHT22;7873;52.230;12.856;2023-10-09T09:35:57;21.10;51.80
15543;DHT22;7873;52.230;12.856;2023-10-09T09:38:25;21.10;51.80
15543;DHT22;7873;52.230;12.856;2023-10-09T09:40:54;21.10;51.90
15543;DHT22;7873;52.230;12.856;2023-10-09T09:43:22;21.10;51.80
15543;DHT22;7873;52.230;12.856;2023-10-09T09:45:50;21.20;51.90
15543;DHT22;7873;52.230;12.856;2023-10-09T09:48:22;21.20;51.80
15543;DHT22;7873;52.230;12.856;2023-10-09T09:50:49;21.20;51.70
15543;DHT22;7873;52.230;12.856;2023-10-09T09:53:20;21.20;51.70
15543;DHT22;7873;52.230;12.856;2023-10-09T09:55:52;21.20;51.80
15543;DHT22;7873;52.230;12.856;2023-10-09T09:58:21;21.20;51.70
15543;DHT22;7873;52.230;12.856;2023-10-09T10:00:50;21.20;51.70
15543;DHT22;7873;52.230;12.856;2023-10-09T10:03:20;21.20;51.80
15543;DHT22;7873;52.230;12.856;2023-10-09T10:05:51;21.10;51.70
15543;DHT22;7873;52.230;12.856;2023-10-09T10:08:23;21.10;51.60
15543;DHT22;7873;52.230;12.856;2023-10-09T10:10:57;21.10;51.80
15543;DHT22;7873;52.230;12.856;2023-10-09T10:16:24;21.10;51.90
15543;DHT22;7873;52.230;12.856;2023-10-09T10:19:00;21.10;51.80
15543;DHT22;7873;52.230;12.856;2023-10-09T10:21:46;21.10;51.80
15543;DHT22;7873;52.230;12.856;2023-10-09T10:27:20;21.10;51.80
15543;DHT22;7873;52.230;12.856;2023-10-09T10:33:02;21.10;51.90
15543;DHT22;7873;52.230;12.856;2023-10-09T10:35:35;21.10;52.00
15543;DHT22;7873;52.230;12.856;2023-10-09T10:38:27;21.00;51.90
15543;DHT22;7873;52.230;12.856;2023-10-09T10:41:13;21.10;51.90
15543;DHT22;7873;52.230;12.856;2023-10-09T10:43:43;21.10;51.80
15543;DHT22;7873;52.230;12.856;2023-10-09T10:46:25;21.10;51.60
15543;DHT22;7873;52.230;12.856;2023-10-09T10:49:03;21.10;51.60
15543;DHT22;7873;52.230;12.856;2023-10-09T10:51:46;21.10;51.70
15543;DHT22;7873;52.230;12.856;2023-10-09T10:54:21;21.10;51.80
15543;DHT22;7873;52.230;12.856;2023-10-09T10:57:19;21.10;51.80
15543;DHT22;7873;52.230;12.856;2023-10-09T10:59:55;21.10;51.90
15543;DHT22;7873;52.230;12.856;2023-10-09T11:02:44;21.10;51.90
15543;DHT22;7873;52.230;12.856;2023-10-09T11:05:13;21.00;51.80
15543;DHT22;7873;52.230;12.856;2023-10-09T11:07:50;21.10;51.90
15543;DHT22;7873;52.230;12.856;2023-10-09T11:10:21;21.10;52.50
15543;DHT22;7873;52.230;12.856;2023-10-09T11:12:54;21.10;51.60
15543;DHT22;7873;52.230;12.856;2023-10-09T11:15:39;21.10;51.80
15543;DHT22;7873;52.230;12.856;2023-10-09T11:18:10;21.10;51.90
15543;DHT22;7873;52.230;12.856;2023-10-09T11:20:45;21.10;51.90
15543;DHT22;7873;52.230;12.856;2023-10-09T11:23:22;21.10;51.80
15543;DHT22;7873;52.230;12.856;2023-10-09T11:26:01;21.10;51.70
15543;DHT22;7873;52.230;12.856;2023-10-09T11:28:47;21.10;51.80
15543;DHT22;7873;52.230;12.856;2023-10-09T11:31:39;21.10;51.90
15543;DHT22;7873;52.230;12.856;2023-10-09T11:34:08;21.10;51.80
15543;DHT22;7873;52.230;12.856;2023-10-09T11:36:52;21.10;51.80
15543;DHT22;7873;52.230;12.856;2023-10-09T11:39:23;21.00;51.70
15543;DHT22;7873;52.230;12.856;2023-10-09T11:42:00;21.10;52.50
15543;DHT22;7873;52.230;12.856;2023-10-09T11:44:40;21.00;51.80
15543;DHT22;7873;52.230;12.856;2023-10-09T11:47:10;21.00;51.80
15543;DHT22;7873;52.230;12.856;2023-10-09T11:49:58;21.00;52.60
15543;DHT22;7873;52.230;12.856;2023-10-09T11:52:55;21.00;51.90
15543;DHT22;7873;52.230;12.856;2023-10-09T11:55:36;21.00;51.90
15543;DHT22;7873;52.230;12.856;2023-10-09T11:58:03;21.00;51.90
15543;DHT22;7873;52.230;12.856;2023-10-09T12:00:33;21.00;51.90
15543;DHT22;7873;52.230;12.856;2023-10-09T12:03:10;21.00;52.00
15543;DHT22;7873;52.230;12.856;2023-10-09T12:05:38;21.00;52.00
15543;DHT22;7873;52.230;12.856;2023-10-09T12:08:07;20.90;52.00
15543;DHT22;7873;52.230;12.856;2023-10-09T12:10:34;21.00;52.00
15543;DHT22;7873;52.230;12.856;2023-10-09T12:13:03;20.90;52.00
15543;DHT22;7873;52.230;12.856;2023-10-09T12:15:31;20.90;52.10
15543;DHT22;7873;52.230;12.856;2023-10-09T12:18:04;20.90;52.10
15543;DHT22;7873;52.230;12.856;2023-10-09T12:20:34;20.90;52.10
15543;DHT22;7873;52.230;12.856;2023-10-09T12:23:02;20.90;52.00
15543;DHT22;7873;52.230;12.856;2023-10-09T12:25:31;20.90;52.10
15543;DHT22;7873;52.230;12.856;2023-10-09T12:27:58;20.90;52.00
15543;DHT22;7873;52.230;12.856;2023-10-09T12:30:26;20.90;52.10
15543;DHT22;7873;52.230;12.856;2023-10-09T12:32:53;21.00;52.00
15543;DHT22;7873;52.230;12.856;2023-10-09T12:35:23;20.90;52.00
15543;DHT22;7873;52.230;12.856;2023-10-09T12:37:50;20.90;52.00
15543;DHT22;7873;52.230;12.856;2023-10-09T12:40:17;20.90;52.00
15543;DHT22;7873;52.230;12.856;2023-10-09T12:42:50;20.90;52.10
15543;DHT22;7873;52.230;12.856;2023-10-09T12:45:18;20.90;52.10
15543;DHT22;7873;52.230;12.856;2023-10-09T12:47:51;21.00;52.00
15543;DHT22;7873;52.230;12.856;2023-10-09T12:50:19;21.00;52.00
15543;DHT22;7873;52.230;12.856;2023-10-09T12:52:54;20.90;52.00
15543;DHT22;7873;52.230;12.856;2023-10-09T12:55:21;20.90;52.10
15543;DHT22;7873;52.230;12.856;2023-10-09T12:57:57;20.90;52.00
15543;DHT22;7873;52.230;12.856;2023-10-09T13:00:29;20.90;52.00
15543;DHT22;7873;52.230;12.856;2023-10-09T13:02:57;20.90;52.10
15543;DHT22;7873;52.230;12.856;2023-10-09T13:05:26;20.90;52.00
15543;DHT22;7873;52.230;12.856;2023-10-09T13:07:54;20.90;52.00
15543;DHT22;7873;52.230;12.856;2023-10-09T13:10:23;20.90;52.00
15543;DHT22;7873;52.230;12.856;2023-10-09T13:12:49;20.90;52.10
15543;DHT22;7873;52.230;12.856;2023-10-09T13:15:20;20.90;52.10
15543;DHT22;7873;52.230;12.856;2023-10-09T13:17:47;20.90;52.10
15543;DHT22;7873;52.230;12.856;2023-10-09T13:20:14;20.90;52.00
15543;DHT22;7873;52.230;12.856;2023-10-09T13:22:41;20.90;52.00
15543;DHT22;7873;52.230;12.856;2023-10-09T13:25:11;20.90;52.00
15543;DHT22;7873;52.230;12.856;2023-10-09T13:27:41;20.90;52.00
15543;DHT22;7873;52.230;12.856;2023-10-09T13:30:13;20.90;52.00
15543;DHT22;7873;52.230;12.856;2023-10-09T13:32:47;20.90;52.00
15543;DHT22;7873;52.230;12.856;2023-10-09T13:35:15;20.90;52.00
15543;DHT22;7873;52.230;12.856;2023-10-09T13:37:43;20.90;52.00
15543;DHT22;7873;52.230;12.856;2023-10-09T13:40:18;20.90;52.10
15543;DHT22;7873;52.230;12.856;2023-10-09T13:42:53;20.90;52.00
15543;DHT22;7873;52.230;12.856;2023-10-09T13:45:24;20.90;52.00
15543;DHT22;7873;52.230;12.856;2023-10-09T13:47:53;20.90;52.00
15543;DHT22;7873;52.230;12.856;2023-10-09T13:50:20;20.80;52.10
15543;DHT22;7873;52.230;12.856;2023-10-09T13:52:47;20.90;52.10
15543;DHT22;7873;52.230;12.856;2023-10-09T13:55:14;20.90;52.10
15543;DHT22;7873;52.230;12.856;2023-10-09T13:57:42;20.80;52.10
15543;DHT22;7873;52.230;12.856;2023-10-09T14:00:11;20.80;52.10
15543;DHT22;7873;52.230;12.856;2023-10-09T14:02:42;20.80;52.10
15543;DHT22;7873;52.230;12.856;2023-10-09T14:05:11;20.80;52.10
15543;DHT22;7873;52.230;12.856;2023-10-09T14:07:39;20.90;52.00
15543;DHT22;7873;52.230;12.856;2023-10-09T14:10:07;20.90;52.00
15543;DHT22;7873;52.230;12.856;2023-10-09T14:12:44;20.90;51.90
15543;DHT22;7873;52.230;12.856;2023-10-09T14:15:10;20.90;51.80
15543;DHT22;7873;52.230;12.856;2023-10-09T14:17:42;20.90;51.80
15543;DHT22;7873;52.230;12.856;2023-10-09T14:20:11;21.00;51.80
15543;DHT22;7873;52.230;12.856;2023-10-09T14:22:57;20.90;51.80
15543;DHT22;7873;52.230;12.856;2023-10-09T14:25:31;20.90;51.90
15543;DHT22;7873;52.230;12.856;2023-10-09T14:28:00;20.90;51.90
15543;DHT22;7873;52.230;12.856;2023-10-09T14:30:26;20.80;52.00
15543;DHT22;7873;52.230;12.856;2023-10-09T14:32:58;20.80;52.00
15543;DHT22;7873;52.230;12.856;2023-10-09T14:35:27;20.90;52.00
15543;DHT22;7873;52.230;12.856;2023-10-09T14:37:55;20.80;52.00
15543;DHT22;7873;52.230;12.856;2023-10-09T14:40:22;20.80;52.00
15543;DHT22;7873;52.230;12.856;2023-10-09T14:42:55;20.80;52.20
15543;DHT22;7873;52.230;12.856;2023-10-09T14:45:24;20.80;52.40
15543;DHT22;7873;52.230;12.856;2023-10-09T14:47:52;20.70;53.00
15543;DHT22;7873;52.230;12.856;2023-10-09T14:50:19;20.70;53.00
15543;DHT22;7873;52.230;12.856;2023-10-09T14:52:47;20.70;53.30
15543;DHT22;7873;52.230;12.856;2023-10-09T14:55:15;20.80;53.10
15543;DHT22;7873;52.230;12.856;2023-10-09T14:57:46;20.80;53.20
15543;DHT22;7873;52.230;12.856;2023-10-09T15:00:15;20.70;53.40
15543;DHT22;7873;52.230;12.856;2023-10-09T15:02:49;20.80;53.60
15543;DHT22;7873;52.230;12.856;2023-10-09T15:05:16;20.60;54.00
15543;DHT22;7873;52.230;12.856;2023-10-09T15:07:43;20.60;54.20
15543;DHT22;7873;52.230;12.856;2023-10-09T15:10:10;20.60;54.30
15543;DHT22;7873;52.230;12.856;2023-10-09T15:12:40;20.70;54.40
15543;DHT22;7873;52.230;12.856;2023-10-09T15:15:08;20.80;54.00
15543;DHT22;7873;52.230;12.856;2023-10-09T15:17:38;21.00;53.50
15543;DHT22;7873;52.230;12.856;2023-10-09T15:20:08;21.50;52.60
15543;DHT22;7873;52.230;12.856;2023-10-09T15:22:39;22.00;51.70
15543;DHT22;7873;52.230;12.856;2023-10-09T15:25:06;22.00;51.40
15543;DHT22;7873;52.230;12.856;2023-10-09T15:27:33;22.20;51.00
15543;DHT22;7873;52.230;12.856;2023-10-09T15:30:00;22.20;50.20
15543;DHT22;7873;52.230;12.856;2023-10-09T15:32:26;22.00;51.30
15543;DHT22;7873;52.230;12.856;2023-10-09T15:34:54;21.80;52.10
15543;DHT22;7873;52.230;12.856;2023-10-09T15:37:23;21.70;51.80
15543;DHT22;7873;52.230;12.856;2023-10-09T15:39:49;21.90;51.70
15543;DHT22;7873;52.230;12.856;2023-10-09T15:42:16;22.00;51.60
15543;DHT22;7873;52.230;12.856;2023-10-09T15:44:42;22.00;51.60
15543;DHT22;7873;52.230;12.856;2023-10-09T15:47:13;22.10;51.50
15543;DHT22;7873;52.230;12.856;2023-10-09T15:49:41;22.00;51.70
15543;DHT22;7873;52.230;12.856;2023-10-09T15:52:09;22.40;51.50
15543;DHT22;7873;52.230;12.856;2023-10-09T15:54:40;23.10;51.20
15543;DHT22;7873;52.230;12.856;2023-10-09T15:57:08;23.60;49.20
15543;DHT22;7873;52.230;12.856;2023-10-09T15:59:35;23.80;48.50
15543;DHT22;7873;52.230;12.856;2023-10-09T16:02:02;23.80;47.90
15543;DHT22;7873;52.230;12.856;2023-10-09T16:04:29;23.70;48.30
15543;DHT22;7873;52.230;12.856;2023-10-09T16:06:59;24.00;48.40
15543;DHT22;7873;52.230;12.856;2023-10-09T16:09:25;24.20;47.50
15543;DHT22;7873;52.230;12.856;2023-10-09T16:11:55;24.50;47.40
15543;DHT22;7873;52.230;12.856;2023-10-09T16:14:21;24.70;46.90
15543;DHT22;7873;52.230;12.856;2023-10-09T16:16:48;24.80;46.40